sensor_id;sensor_type;location;lat;lon;timestamp;pressure;altitude;pressure_sealevel;temperature;humidity
62942;BME280;49042;47.318;19.874;2023-04-06T00:01:59;100645.34;;;0.17;58.10
62942;BME280;49042;47.318;19.874;2023-04-06T00:05:00;100644.03;;;0.23;57.58
62942;BME280;49042;47.318;19.874;2023-04-06T00:08:02;100639.88;;;0.13;57.76
62942;BME280;49042;47.318;19.874;2023-04-06T00:11:04;100636.28;;;0.10;58.09
62942;BME280;49042;47.318;19.874;2023-04-06T00:14:06;100638.72;;;0.09;58.83
62942;BME280;49042;47.318;19.874;2023-04-06T00:17:08;100632.16;;;0.13;58.83
62942;BME280;49042;47.318;19.874;2023-04-06T00:20:10;100630.59;;;0.15;58.61
62942;BME280;49042;47.318;19.874;2023-04-06T00:23:11;100632.63;;;0.19;58.82
62942;BME280;49042;47.318;19.874;2023-04-06T00:26:32;100624.94;;;0.19;58.99
62942;BME280;49042;47.318;19.874;2023-04-06T00:29:34;100625.91;;;-0.36;61.48
62942;BME280;49042;47.318;19.874;2023-04-06T00:32:35;100625.84;;;-0.81;64.30
62942;BME280;49042;47.318;19.874;2023-04-06T00:35:37;100623.78;;;-0.75;64.96
62942;BME280;49042;47.318;19.874;2023-04-06T00:38:40;100627.53;;;-0.59;64.71
62942;BME280;49042;47.318;19.874;2023-04-06T00:41:46;100619.19;;;-0.79;65.93
62942;BME280;49042;47.318;19.874;2023-04-06T00:44:48;100619.28;;;-0.67;65.33
62942;BME280;49042;47.318;19.874;2023-04-06T00:47:49;100613.50;;;-0.65;63.62
62942;BME280;49042;47.318;19.874;2023-04-06T00:50:51;100615.06;;;-0.44;62.77
62942;BME280;49042;47.318;19.874;2023-04-06T00:53:53;100618.84;;;-1.05;63.84
62942;BME280;49042;47.318;19.874;2023-04-06T00:56:56;100617.44;;;-1.01;64.72
62942;BME280;49042;47.318;19.874;2023-04-06T00:59:58;100621.56;;;-0.70;62.44
62942;BME280;49042;47.318;19.874;2023-04-06T01:02:59;100621.06;;;-1.20;65.36
62942;BME280;49042;47.318;19.874;2023-04-06T01:06:02;100624.16;;;-1.87;69.49
62942;BME280;49042;47.318;19.874;2023-04-06T01:09:04;100619.44;;;-1.51;68.26
62942;BME280;49042;47.318;19.874;2023-04-06T01:12:06;100619.31;;;-1.63;68.28
62942;BME280;49042;47.318;19.874;2023-04-06T01:15:08;100614.62;;;-2.30;71.55
62942;BME280;49042;47.318;19.874;2023-04-06T01:18:10;100621.38;;;-2.41;71.69
62942;BME280;49042;47.318;19.874;2023-04-06T01:21:12;100615.81;;;-2.16;69.60
62942;BME280;49042;47.318;19.874;2023-04-06T01:24:17;100612.12;;;-2.50;71.16
62942;BME280;49042;47.318;19.874;2023-04-06T01:27:18;100611.19;;;-2.61;74.21
62942;BME280;49042;47.318;19.874;2023-04-06T01:30:20;100605.44;;;-2.69;74.00
62942;BME280;49042;47.318;19.874;2023-04-06T01:33:22;100600.53;;;-2.86;74.85
62942;BME280;49042;47.318;19.874;2023-04-06T01:36:23;100601.38;;;-2.86;74.25
62942;BME280;49042;47.318;19.874;2023-04-06T01:39:25;100587.19;;;-2.93;73.95
62942;BME280;49042;47.318;19.874;2023-04-06T01:42:27;100592.19;;;-2.94;73.86
62942;BME280;49042;47.318;19.874;2023-04-06T01:45:29;100590.25;;;-2.97;74.27
62942;BME280;49042;47.318;19.874;2023-04-06T01:48:31;100593.03;;;-3.04;75.26
62942;BME280;49042;47.318;19.874;2023-04-06T01:51:33;100590.31;;;-3.06;74.43
62942;BME280;49042;47.318;19.874;2023-04-06T01:54:34;100582.63;;;-3.16;75.29
62942;BME280;49042;47.318;19.874;2023-04-06T01:57:36;100580.28;;;-3.04;73.60
62942;BME280;49042;47.318;19.874;2023-04-06T02:00:38;100583.19;;;-2.80;72.23
62942;BME280;49042;47.318;19.874;2023-04-06T02:03:39;100580.94;;;-2.66;71.69
62942;BME280;49042;47.318;19.874;2023-04-06T02:06:41;100576.09;;;-2.63;71.76
62942;BME280;49042;47.318;19.874;2023-04-06T02:09:43;100583.31;;;-3.08;74.33
62942;BME280;49042;47.318;19.874;2023-04-06T02:12:44;100578.09;;;-3.29;75.60
62942;BME280;49042;47.318;19.874;2023-04-06T02:15:46;100567.72;;;-3.31;76.17
62942;BME280;49042;47.318;19.874;2023-04-06T02:18:49;100573.66;;;-3.22;76.05
62942;BME280;49042;47.318;19.874;2023-04-06T02:21:51;100576.91;;;-3.33;76.87
62942;BME280;49042;47.318;19.874;2023-04-06T02:24:52;100576.44;;;-3.48;77.60
62942;BME280;49042;47.318;19.874;2023-04-06T02:27:54;100576.44;;;-3.48;77.77
62942;BME280;49042;47.318;19.874;2023-04-06T02:30:56;100571.31;;;-3.48;77.99
62942;BME280;49042;47.318;19.874;2023-04-06T02:33:58;100575.59;;;-3.58;79.04
62942;BME280;49042;47.318;19.874;2023-04-06T02:36:59;100573.53;;;-3.62;79.18
62942;BME280;49042;47.318;19.874;2023-04-06T02:40:02;100574.16;;;-3.64;79.99
62942;BME280;49042;47.318;19.874;2023-04-06T02:43:03;100568.78;;;-3.68;80.38
62942;BME280;49042;47.318;19.874;2023-04-06T02:46:05;100573.88;;;-3.68;80.71
62942;BME280;49042;47.318;19.874;2023-04-06T02:49:07;100571.66;;;-3.73;81.69
62942;BME280;49042;47.318;19.874;2023-04-06T02:52:10;100572.28;;;-3.76;82.34
62942;BME280;49042;47.318;19.874;2023-04-06T02:55:11;100577.41;;;-3.85;83.05
62942;BME280;49042;47.318;19.874;2023-04-06T02:58:13;100574.03;;;-3.94;83.78
62942;BME280;49042;47.318;19.874;2023-04-06T03:01:15;100570.75;;;-3.93;84.02
62942;BME280;49042;47.318;19.874;2023-04-06T03:04:16;100574.03;;;-3.94;84.10
62942;BME280;49042;47.318;19.874;2023-04-06T03:07:18;100570.59;;;-3.95;84.42
62942;BME280;49042;47.318;19.874;2023-04-06T03:10:20;100576.22;;;-4.08;85.24
62942;BME280;49042;47.318;19.874;2023-04-06T03:13:22;100574.50;;;-3.99;84.30
62942;BME280;49042;47.318;19.874;2023-04-06T03:16:24;100572.22;;;-3.95;83.66
62942;BME280;49042;47.318;19.874;2023-04-06T03:19:26;100569.78;;;-3.85;81.70
62942;BME280;49042;47.318;19.874;2023-04-06T03:22:28;100574.06;;;-3.75;81.22
62942;BME280;49042;47.318;19.874;2023-04-06T03:25:30;100561.47;;;-3.73;81.03
62942;BME280;49042;47.318;19.874;2023-04-06T03:28:32;100566.34;;;-3.66;80.49
62942;BME280;49042;47.318;19.874;2023-04-06T03:31:33;100564.72;;;-3.66;80.59
62942;BME280;49042;47.318;19.874;2023-04-06T03:34:35;100566.91;;;-3.60;80.57
62942;BME280;49042;47.318;19.874;2023-04-06T03:37:37;100564.16;;;-3.52;79.79
62942;BME280;49042;47.318;19.874;2023-04-06T03:40:39;100562.78;;;-3.49;79.84
62942;BME280;49042;47.318;19.874;2023-04-06T03:43:40;100563.41;;;-3.51;79.52
62942;BME280;49042;47.318;19.874;2023-04-06T03:46:42;100560.38;;;-3.47;79.60
62942;BME280;49042;47.318;19.874;2023-04-06T03:49:44;100553.47;;;-3.48;79.72
62942;BME280;49042;47.318;19.874;2023-04-06T03:52:45;100551.06;;;-3.47;79.65
62942;BME280;49042;47.318;19.874;2023-04-06T03:55:47;100549.91;;;-3.50;79.37
62942;BME280;49042;47.318;19.874;2023-04-06T03:58:49;100560.84;;;-3.51;79.94
62942;BME280;49042;47.318;19.874;2023-04-06T04:01:52;100561.47;;;-3.54;79.68
62942;BME280;49042;47.318;19.874;2023-04-06T04:08:11;100556.69;;;-3.60;80.38
62942;BME280;49042;47.318;19.874;2023-04-06T04:11:13;100551.75;;;-3.58;80.40
62942;BME280;49042;47.318;19.874;2023-04-06T04:14:14;100552.66;;;-3.58;80.66
62942;BME280;49042;47.318;19.874;2023-04-06T04:17:16;100550.84;;;-3.59;80.52
62942;BME280;49042;47.318;19.874;2023-04-06T04:20:18;100555.69;;;-3.62;80.80
62942;BME280;49042;47.318;19.874;2023-04-06T04:23:19;100558.44;;;-3.69;81.14
62942;BME280;49042;47.318;19.874;2023-04-06T04:26:21;100554.97;;;-3.70;81.71
62942;BME280;49042;47.318;19.874;2023-04-06T04:29:23;100548.66;;;-3.64;81.50
62942;BME280;49042;47.318;19.874;2023-04-06T04:32:24;100545.00;;;-3.58;81.09
62942;BME280;49042;47.318;19.874;2023-04-06T04:35:28;100552.09;;;-3.45;79.59
62942;BME280;49042;47.318;19.874;2023-04-06T04:38:30;100550.56;;;-3.42;79.98
62942;BME280;49042;47.318;19.874;2023-04-06T04:41:32;100552.84;;;-3.26;78.71
62942;BME280;49042;47.318;19.874;2023-04-06T04:44:33;100549.25;;;-3.28;80.04
62942;BME280;49042;47.318;19.874;2023-04-06T04:47:35;100541.38;;;-3.21;79.73
62942;BME280;49042;47.318;19.874;2023-04-06T04:50:37;100540.88;;;-3.17;79.79
62942;BME280;49042;47.318;19.874;2023-04-06T04:53:39;100544.50;;;-3.15;80.20
62942;BME280;49042;47.318;19.874;2023-04-06T04:56:40;100537.47;;;-3.07;79.79
62942;BME280;49042;47.318;19.874;2023-04-06T04:59:43;100535.75;;;-2.97;78.70
62942;BME280;49042;47.318;19.874;2023-04-06T05:02:44;100533.84;;;-2.90;78.81
62942;BME280;49042;47.318;19.874;2023-04-06T05:05:46;100523.62;;;-2.90;78.47
62942;BME280;49042;47.318;19.874;2023-04-06T05:08:48;100525.63;;;-2.76;77.40
62942;BME280;49042;47.318;19.874;2023-04-06T05:11:50;100525.88;;;-2.73;78.90
62942;BME280;49042;47.318;19.874;2023-04-06T05:14:51;100530.59;;;-2.67;79.44
62942;BME280;49042;47.318;19.874;2023-04-06T05:17:53;100533.16;;;-2.67;79.58
62942;BME280;49042;47.318;19.874;2023-04-06T05:20:55;100530.12;;;-2.53;78.78
62942;BME280;49042;47.318;19.874;2023-04-06T05:23:56;100530.03;;;-2.44;78.54
62942;BME280;49042;47.318;19.874;2023-04-06T05:26:59;100529.16;;;-2.34;77.78
62942;BME280;49042;47.318;19.874;2023-04-06T05:30:01;100533.78;;;-2.19;78.13
62942;BME280;49042;47.318;19.874;2023-04-06T05:33:03;100530.84;;;-2.13;78.21
62942;BME280;49042;47.318;19.874;2023-04-06T05:36:05;100531.59;;;-1.94;77.53
62942;BME280;49042;47.318;19.874;2023-04-06T05:39:08;100528.53;;;-1.79;78.14
62942;BME280;49042;47.318;19.874;2023-04-06T05:42:10;100534.91;;;-1.63;77.67
62942;BME280;49042;47.318;19.874;2023-04-06T05:45:12;100523.25;;;-1.49;78.42
62942;BME280;49042;47.318;19.874;2023-04-06T05:48:18;100524.19;;;-1.26;77.25
62942;BME280;49042;47.318;19.874;2023-04-06T05:51:20;100525.69;;;-1.07;76.59
62942;BME280;49042;47.318;19.874;2023-04-06T05:54:21;100519.94;;;-0.82;75.92
62942;BME280;49042;47.318;19.874;2023-04-06T05:57:23;100523.16;;;-0.62;76.82
62942;BME280;49042;47.318;19.874;2023-04-06T06:00:25;100516.59;;;-0.36;75.55
62942;BME280;49042;47.318;19.874;2023-04-06T06:03:27;100518.44;;;-0.11;73.92
62942;BME280;49042;47.318;19.874;2023-04-06T06:06:30;100516.28;;;0.18;71.02
62942;BME280;49042;47.318;19.874;2023-04-06T06:09:31;100520.66;;;0.44;70.62
62942;BME280;49042;47.318;19.874;2023-04-06T06:12:33;100510.75;;;0.72;68.19
62942;BME280;49042;47.318;19.874;2023-04-06T06:15:34;100503.78;;;0.95;68.11
62942;BME280;49042;47.318;19.874;2023-04-06T06:18:36;100503.56;;;1.16;64.77
62942;BME280;49042;47.318;19.874;2023-04-06T06:21:38;100502.91;;;1.45;65.14
62942;BME280;49042;47.318;19.874;2023-04-06T06:24:40;100508.56;;;1.78;61.81
62942;BME280;49042;47.318;19.874;2023-04-06T06:27:41;100492.97;;;1.89;61.69
62942;BME280;49042;47.318;19.874;2023-04-06T06:30:44;100495.19;;;2.10;59.21
62942;BME280;49042;47.318;19.874;2023-04-06T06:33:46;100493.97;;;2.58;57.24
62942;BME280;49042;47.318;19.874;2023-04-06T06:36:51;100494.41;;;3.06;53.81
62942;BME280;49042;47.318;19.874;2023-04-06T06:39:53;100499.78;;;2.82;51.52
62942;BME280;49042;47.318;19.874;2023-04-06T06:42:55;100498.44;;;3.16;52.21
62942;BME280;49042;47.318;19.874;2023-04-06T06:45:56;100498.34;;;3.43;51.18
62942;BME280;49042;47.318;19.874;2023-04-06T06:49:00;100498.03;;;3.68;50.09
62942;BME280;49042;47.318;19.874;2023-04-06T06:52:02;100496.84;;;4.06;48.92
62942;BME280;49042;47.318;19.874;2023-04-06T06:55:04;100480.69;;;4.71;46.81
62942;BME280;49042;47.318;19.874;2023-04-06T06:58:05;100487.38;;;5.84;44.31
62942;BME280;49042;47.318;19.874;2023-04-06T07:01:08;100489.19;;;5.85;41.32
62942;BME280;49042;47.318;19.874;2023-04-06T07:04:09;100476.94;;;6.52;40.07
62942;BME280;49042;47.318;19.874;2023-04-06T07:07:12;100485.13;;;6.99;38.09
62942;BME280;49042;47.318;19.874;2023-04-06T07:10:13;100484.87;;;7.12;37.04
62942;BME280;49042;47.318;19.874;2023-04-06T07:13:15;100486.53;;;7.50;36.41
62942;BME280;49042;47.318;19.874;2023-04-06T07:16:23;100476.16;;;7.30;35.63
62942;BME280;49042;47.318;19.874;2023-04-06T07:19:25;100485.63;;;7.49;35.98
62942;BME280;49042;47.318;19.874;2023-04-06T07:22:26;100483.81;;;8.73;33.65
62942;BME280;49042;47.318;19.874;2023-04-06T07:25:29;100481.56;;;9.79;31.37
62942;BME280;49042;47.318;19.874;2023-04-06T07:28:31;100474.34;;;10.50;29.98
62942;BME280;49042;47.318;19.874;2023-04-06T07:31:33;100481.16;;;11.33;28.79
62942;BME280;49042;47.318;19.874;2023-04-06T07:34:34;100468.75;;;10.66;28.87
62942;BME280;49042;47.318;19.874;2023-04-06T07:37:36;100465.97;;;11.51;28.29
62942;BME280;49042;47.318;19.874;2023-04-06T07:40:38;100457.41;;;12.62;27.39
62942;BME280;49042;47.318;19.874;2023-04-06T07:43:40;100459.78;;;12.91;26.03
62942;BME280;49042;47.318;19.874;2023-04-06T07:46:41;100457.50;;;13.52;25.75
62942;BME280;49042;47.318;19.874;2023-04-06T07:49:44;100457.09;;;11.76;26.70
62942;BME280;49042;47.318;19.874;2023-04-06T07:52:46;100447.41;;;14.24;24.04
62942;BME280;49042;47.318;19.874;2023-04-06T07:55:48;100445.88;;;14.99;23.19
62942;BME280;49042;47.318;19.874;2023-04-06T07:58:50;100429.59;;;16.23;20.71
62942;BME280;49042;47.318;19.874;2023-04-06T08:01:54;100435.16;;;16.72;20.17
62942;BME280;49042;47.318;19.874;2023-04-06T08:04:56;100429.44;;;16.07;20.37
62942;BME280;49042;47.318;19.874;2023-04-06T08:07:58;100419.94;;;16.22;20.83
62942;BME280;49042;47.318;19.874;2023-04-06T08:11:00;100421.34;;;14.99;21.16
62942;BME280;49042;47.318;19.874;2023-04-06T08:14:04;100420.31;;;15.66;21.22
62942;BME280;49042;47.318;19.874;2023-04-06T08:17:06;100415.78;;;16.62;21.01
62942;BME280;49042;47.318;19.874;2023-04-06T08:20:08;100417.56;;;14.76;22.18
62942;BME280;49042;47.318;19.874;2023-04-06T08:23:09;100417.44;;;11.93;25.79
62942;BME280;49042;47.318;19.874;2023-04-06T08:26:12;100417.38;;;15.33;23.16
62942;BME280;49042;47.318;19.874;2023-04-06T08:29:14;100408.41;;;14.49;23.32
62942;BME280;49042;47.318;19.874;2023-04-06T08:32:15;100406.28;;;16.90;21.02
62942;BME280;49042;47.318;19.874;2023-04-06T08:35:17;100408.81;;;14.81;22.92
62942;BME280;49042;47.318;19.874;2023-04-06T08:38:19;100405.97;;;11.54;26.08
62942;BME280;49042;47.318;19.874;2023-04-06T08:41:21;100416.66;;;11.31;25.90
62942;BME280;49042;47.318;19.874;2023-04-06T08:44:26;100408.03;;;10.14;28.56
62942;BME280;49042;47.318;19.874;2023-04-06T08:47:28;100407.53;;;9.72;30.06
62942;BME280;49042;47.318;19.874;2023-04-06T08:50:31;100410.25;;;9.25;30.49
62942;BME280;49042;47.318;19.874;2023-04-06T08:53:37;100406.16;;;10.38;28.62
62942;BME280;49042;47.318;19.874;2023-04-06T08:56:39;100404.00;;;8.72;31.52
62942;BME280;49042;47.318;19.874;2023-04-06T08:59:41;100406.56;;;8.49;31.85
62942;BME280;49042;47.318;19.874;2023-04-06T09:02:45;100407.75;;;8.57;31.70
62942;BME280;49042;47.318;19.874;2023-04-06T09:05:47;100406.56;;;8.25;32.62
62942;BME280;49042;47.318;19.874;2023-04-06T09:08:49;100399.81;;;7.45;33.17
62942;BME280;49042;47.318;19.874;2023-04-06T09:11:51;100398.41;;;6.53;34.68
62942;BME280;49042;47.318;19.874;2023-04-06T09:14:54;100402.19;;;6.80;35.40
62942;BME280;49042;47.318;19.874;2023-04-06T09:17:57;100397.81;;;6.41;34.97
62942;BME280;49042;47.318;19.874;2023-04-06T09:21:04;100397.81;;;6.79;35.29
62942;BME280;49042;47.318;19.874;2023-04-06T09:24:07;100389.66;;;6.33;35.43
62942;BME280;49042;47.318;19.874;2023-04-06T09:27:10;100385.50;;;6.00;35.51
62942;BME280;49042;47.318;19.874;2023-04-06T09:30:12;100381.81;;;6.88;35.23
62942;BME280;49042;47.318;19.874;2023-04-06T09:33:24;100388.28;;;6.98;35.16
62942;BME280;49042;47.318;19.874;2023-04-06T09:36:35;100385.91;;;7.23;35.37
62942;BME280;49042;47.318;19.874;2023-04-06T09:39:44;100386.41;;;7.35;36.03
62942;BME280;49042;47.318;19.874;2023-04-06T09:42:47;100388.19;;;6.77;35.98
62942;BME280;49042;47.318;19.874;2023-04-06T09:45:49;100379.50;;;7.56;34.76
62942;BME280;49042;47.318;19.874;2023-04-06T09:48:52;100385.34;;;8.38;34.21
62942;BME280;49042;47.318;19.874;2023-04-06T09:51:58;100378.03;;;9.21;31.96
62942;BME280;49042;47.318;19.874;2023-04-06T09:55:03;100378.12;;;8.99;32.35
62942;BME280;49042;47.318;19.874;2023-04-06T09:58:07;100377.44;;;8.57;34.21
62942;BME280;49042;47.318;19.874;2023-04-06T10:01:15;100383.06;;;8.92;32.84
62942;BME280;49042;47.318;19.874;2023-04-06T10:07:27;100370.34;;;7.86;34.30
62942;BME280;49042;47.318;19.874;2023-04-06T10:10:29;100376.75;;;7.31;36.93
62942;BME280;49042;47.318;19.874;2023-04-06T10:13:32;100376.37;;;8.52;33.60
62942;BME280;49042;47.318;19.874;2023-04-06T10:16:34;100375.09;;;8.41;33.14
62942;BME280;49042;47.318;19.874;2023-04-06T10:19:49;100370.16;;;8.25;34.36
62942;BME280;49042;47.318;19.874;2023-04-06T10:23:13;100367.53;;;9.18;32.98
62942;BME280;49042;47.318;19.874;2023-04-06T10:26:20;100362.28;;;8.01;33.63
62942;BME280;49042;47.318;19.874;2023-04-06T10:29:22;100356.97;;;7.55;33.85
62942;BME280;49042;47.318;19.874;2023-04-06T10:32:38;100356.13;;;9.14;35.31
62942;BME280;49042;47.318;19.874;2023-04-06T10:35:40;100353.44;;;9.63;30.75
62942;BME280;49042;47.318;19.874;2023-04-06T10:38:42;100353.72;;;9.73;30.61
62942;BME280;49042;47.318;19.874;2023-04-06T10:41:45;100353.16;;;8.34;32.46
62942;BME280;49042;47.318;19.874;2023-04-06T10:44:49;100351.53;;;7.48;34.84
62942;BME280;49042;47.318;19.874;2023-04-06T10:47:55;100351.47;;;8.13;34.68
62942;BME280;49042;47.318;19.874;2023-04-06T10:50:57;100354.25;;;7.73;36.49
62942;BME280;49042;47.318;19.874;2023-04-06T10:53:59;100361.75;;;9.02;36.41
62942;BME280;49042;47.318;19.874;2023-04-06T10:57:01;100356.75;;;8.38;36.66
62942;BME280;49042;47.318;19.874;2023-04-06T11:00:07;100358.41;;;8.35;36.98
62942;BME280;49042;47.318;19.874;2023-04-06T11:03:13;100369.66;;;7.07;39.13
62942;BME280;49042;47.318;19.874;2023-04-06T11:06:23;100359.81;;;7.20;40.36
62942;BME280;49042;47.318;19.874;2023-04-06T11:09:25;100362.41;;;6.05;43.40
62942;BME280;49042;47.318;19.874;2023-04-06T11:12:28;100342.09;;;5.76;44.34
62942;BME280;49042;47.318;19.874;2023-04-06T11:15:34;100363.84;;;6.93;43.58
62942;BME280;49042;47.318;19.874;2023-04-06T11:18:50;100367.09;;;7.48;41.22
62942;BME280;49042;47.318;19.874;2023-04-06T11:21:52;100369.56;;;7.45;41.13
62942;BME280;49042;47.318;19.874;2023-04-06T11:25:07;100375.41;;;6.61;44.02
62942;BME280;49042;47.318;19.874;2023-04-06T11:28:10;100367.47;;;7.58;43.11
62942;BME280;49042;47.318;19.874;2023-04-06T11:31:12;100372.75;;;7.59;43.41
62942;BME280;49042;47.318;19.874;2023-04-06T11:34:21;100371.81;;;7.37;42.86
62942;BME280;49042;47.318;19.874;2023-04-06T11:37:26;100376.00;;;7.14;43.95
62942;BME280;49042;47.318;19.874;2023-04-06T11:40:28;100380.38;;;6.95;43.66
62942;BME280;49042;47.318;19.874;2023-04-06T11:43:31;100366.88;;;6.07;49.12
62942;BME280;49042;47.318;19.874;2023-04-06T11:46:33;100374.31;;;6.18;51.19
62942;BME280;49042;47.318;19.874;2023-04-06T11:49:40;100380.16;;;4.76;57.28
62942;BME280;49042;47.318;19.874;2023-04-06T11:52:42;100378.25;;;3.78;65.13
62942;BME280;49042;47.318;19.874;2023-04-06T11:55:44;100376.56;;;4.41;65.61
62942;BME280;49042;47.318;19.874;2023-04-06T11:58:48;100372.63;;;4.64;63.89
62942;BME280;49042;47.318;19.874;2023-04-06T12:01:50;100370.44;;;4.55;62.59
62942;BME280;49042;47.318;19.874;2023-04-06T12:04:53;100373.47;;;4.80;58.80
62942;BME280;49042;47.318;19.874;2023-04-06T12:07:55;100377.91;;;5.33;59.52
62942;BME280;49042;47.318;19.874;2023-04-06T12:11:00;100379.91;;;4.88;60.13
62942;BME280;49042;47.318;19.874;2023-04-06T12:14:02;100380.88;;;4.74;66.57
62942;BME280;49042;47.318;19.874;2023-04-06T12:17:06;100385.56;;;4.64;69.58
62942;BME280;49042;47.318;19.874;2023-04-06T12:20:08;100387.22;;;4.47;72.54
62942;BME280;49042;47.318;19.874;2023-04-06T12:23:25;100380.56;;;3.42;81.82
62942;BME280;49042;47.318;19.874;2023-04-06T12:26:27;100389.59;;;3.51;83.83
62942;BME280;49042;47.318;19.874;2023-04-06T12:29:29;100395.19;;;3.28;86.06
62942;BME280;49042;47.318;19.874;2023-04-06T12:32:31;100393.22;;;3.39;88.39
62942;BME280;49042;47.318;19.874;2023-04-06T12:35:33;100383.94;;;3.72;89.22
62942;BME280;49042;47.318;19.874;2023-04-06T12:38:35;100391.62;;;3.26;82.51
62942;BME280;49042;47.318;19.874;2023-04-06T12:41:39;100382.87;;;3.53;81.70
62942;BME280;49042;47.318;19.874;2023-04-06T12:44:44;100383.88;;;4.17;81.55
62942;BME280;49042;47.318;19.874;2023-04-06T12:47:46;100390.34;;;3.63;85.04
62942;BME280;49042;47.318;19.874;2023-04-06T12:50:58;100388.28;;;4.67;83.36
62942;BME280;49042;47.318;19.874;2023-04-06T12:54:00;100394.62;;;3.19;88.50
62942;BME280;49042;47.318;19.874;2023-04-06T12:57:02;100390.34;;;3.19;90.55
62942;BME280;49042;47.318;19.874;2023-04-06T13:00:05;100392.50;;;4.33;91.28
62942;BME280;49042;47.318;19.874;2023-04-06T13:03:09;100388.06;;;4.31;88.78
62942;BME280;49042;47.318;19.874;2023-04-06T13:06:11;100384.28;;;3.78;91.95
62942;BME280;49042;47.318;19.874;2023-04-06T13:09:14;100390.59;;;3.99;90.56
62942;BME280;49042;47.318;19.874;2023-04-06T13:12:16;100386.06;;;3.49;91.43
62942;BME280;49042;47.318;19.874;2023-04-06T13:15:17;100383.66;;;3.82;90.50
62942;BME280;49042;47.318;19.874;2023-04-06T13:18:19;100386.97;;;3.95;90.22
62942;BME280;49042;47.318;19.874;2023-04-06T13:21:21;100378.69;;;3.55;93.66
62942;BME280;49042;47.318;19.874;2023-04-06T13:24:23;100376.91;;;3.39;94.79
62942;BME280;49042;47.318;19.874;2023-04-06T13:27:25;100384.12;;;3.16;96.23
62942;BME280;49042;47.318;19.874;2023-04-06T13:30:28;100381.41;;;2.70;97.05
62942;BME280;49042;47.318;19.874;2023-04-06T13:33:30;100379.44;;;3.24;97.44
62942;BME280;49042;47.318;19.874;2023-04-06T13:36:32;100385.00;;;3.45;96.68
62942;BME280;49042;47.318;19.874;2023-04-06T13:39:34;100385.22;;;2.91;96.95
62942;BME280;49042;47.318;19.874;2023-04-06T13:42:37;100372.44;;;3.82;95.50
62942;BME280;49042;47.318;19.874;2023-04-06T13:45:49;100373.16;;;2.89;99.39
62942;BME280;49042;47.318;19.874;2023-04-06T13:48:51;100372.81;;;3.42;99.01
62942;BME280;49042;47.318;19.874;2023-04-06T13:51:53;100374.25;;;3.08;99.88
62942;BME280;49042;47.318;19.874;2023-04-06T13:54:55;100366.75;;;2.98;100.00
62942;BME280;49042;47.318;19.874;2023-04-06T13:57:57;100366.50;;;3.83;98.78
62942;BME280;49042;47.318;19.874;2023-04-06T14:01:06;100363.22;;;3.55;96.37
62942;BME280;49042;47.318;19.874;2023-04-06T14:04:09;100364.84;;;2.80;100.00
62942;BME280;49042;47.318;19.874;2023-04-06T14:07:11;100361.78;;;3.01;100.00
62942;BME280;49042;47.318;19.874;2023-04-06T14:10:13;100352.91;;;3.70;100.00
62942;BME280;49042;47.318;19.874;2023-04-06T14:13:17;100355.31;;;4.14;99.41
62942;BME280;49042;47.318;19.874;2023-04-06T14:16:22;100354.19;;;4.41;97.71
62942;BME280;49042;47.318;19.874;2023-04-06T14:19:25;100349.53;;;4.67;95.11
62942;BME280;49042;47.318;19.874;2023-04-06T14:22:26;100354.97;;;4.23;95.18
62942;BME280;49042;47.318;19.874;2023-04-06T14:25:28;100355.00;;;4.40;95.25
62942;BME280;49042;47.318;19.874;2023-04-06T14:28:33;100354.22;;;3.79;97.36
62942;BME280;49042;47.318;19.874;2023-04-06T14:31:35;100362.37;;;2.82;99.96
62942;BME280;49042;47.318;19.874;2023-04-06T14:34:37;100350.31;;;3.55;97.48
62942;BME280;49042;47.318;19.874;2023-04-06T14:37:39;100352.72;;;3.67;98.21
62942;BME280;49042;47.318;19.874;2023-04-06T14:40:40;100355.31;;;4.14;95.69
62942;BME280;49042;47.318;19.874;2023-04-06T14:43:42;100356.72;;;4.24;95.95
62942;BME280;49042;47.318;19.874;2023-04-06T14:46:44;100353.38;;;4.10;94.61
62942;BME280;49042;47.318;19.874;2023-04-06T14:49:51;100351.78;;;4.12;93.71
62942;BME280;49042;47.318;19.874;2023-04-06T14:52:53;100352.91;;;4.17;94.20
62942;BME280;49042;47.318;19.874;2023-04-06T14:55:55;100347.12;;;4.22;94.24
62942;BME280;49042;47.318;19.874;2023-04-06T14:58:58;100342.37;;;3.82;95.76
62942;BME280;49042;47.318;19.874;2023-04-06T15:02:02;100347.44;;;4.28;94.55
62942;BME280;49042;47.318;19.874;2023-04-06T15:05:04;100344.75;;;4.10;92.67
62942;BME280;49042;47.318;19.874;2023-04-06T15:08:07;100346.00;;;4.01;94.54
62942;BME280;49042;47.318;19.874;2023-04-06T15:11:11;100350.53;;;4.05;94.87
62942;BME280;49042;47.318;19.874;2023-04-06T15:14:13;100348.34;;;4.28;94.34
62942;BME280;49042;47.318;19.874;2023-04-06T15:17:15;100350.28;;;4.33;94.68
62942;BME280;49042;47.318;19.874;2023-04-06T15:20:17;100350.16;;;3.67;95.58
62942;BME280;49042;47.318;19.874;2023-04-06T15:23:18;100352.28;;;4.22;94.69
62942;BME280;49042;47.318;19.874;2023-04-06T15:26:20;100352.50;;;4.10;94.45
62942;BME280;49042;47.318;19.874;2023-04-06T15:29:22;100362.91;;;3.20;97.34
62942;BME280;49042;47.318;19.874;2023-04-06T15:32:24;100353.69;;;3.39;97.71
62942;BME280;49042;47.318;19.874;2023-04-06T15:35:26;100357.59;;;2.45;100.00
62942;BME280;49042;47.318;19.874;2023-04-06T15:38:30;100355.63;;;2.28;100.00
62942;BME280;49042;47.318;19.874;2023-04-06T15:41:32;100359.37;;;3.04;100.00
62942;BME280;49042;47.318;19.874;2023-04-06T15:44:34;100351.88;;;2.78;100.00
62942;BME280;49042;47.318;19.874;2023-04-06T15:47:43;100353.31;;;2.60;100.00
62942;BME280;49042;47.318;19.874;2023-04-06T15:50:45;100351.69;;;1.78;100.00
62942;BME280;49042;47.318;19.874;2023-04-06T15:53:47;100352.56;;;1.65;100.00
62942;BME280;49042;47.318;19.874;2023-04-06T15:56:49;100354.88;;;1.48;100.00